Nearby METAR Reports

 

KALB - Albany, New York, USA
Distance from station: E 47mi, 75km
Updated: Wed, 16-Aug-2017 4:51pm EDT
Mostly cloudy
Mostly cloudy
 Wind from WNW
Wind: WNW 15 mph , 24 km/h
Temperature: 81°F , 27°C
Dew Point: 54°F , 12°C
Humidity: 39%
Barometer: 29.96 inHg , 1014.6 hPa
Clouds: Mostly cloudy
Visibility: 10 miles , 16 km
Cloud details: Few Clouds 4800 ft
Partly cloudy 6000 ft
Partly cloudy 17000 ft
Mostly cloudy 26000 ft
2017/08/16 20:51 KALB 162051Z 30013KT 10SM FEW048 SCT060 SCT170 BKN260 27/12 A2996 RMK AO2 SLP143 T02720122 55009
KSLK - Saranac Lake, New York, USA
Distance from station: N 110mi, 177km
Updated: Wed, 16-Aug-2017 4:51pm EDT
Clear
Clear
 Wind from varies
Wind: varies 7 mph , 11 km/h
Temperature: 66°F , 19°C
Dew Point: 45°F , 7°C
Humidity: 46%
Barometer: 30.04 inHg , 1017.3 hPa
Clouds: Clear
Visibility: 10 miles , 16 km
2017/08/16 20:51 KSLK 162051Z AUTO VRB06KT 10SM CLR 19/07 A3004 RMK AO2 SLP168 T01940072 56007
 
KSYR - Syracuse, New York, USA
Distance from station: W 73mi, 117km
Updated: Wed, 16-Aug-2017 4:54pm EDT
Mostly cloudy
Mostly cloudy
 Wind from NW
Wind: NW 13 mph , 20 km/h
Temperature: 75°F , 24°C
Dew Point: 54°F , 12°C
Humidity: 47%
Barometer: 30.04 inHg , 1017.3 hPa
Clouds: Mostly cloudy
Visibility: 10 miles , 16 km
Cloud details: Few Clouds 4000 ft
Partly cloudy 10000 ft
Mostly cloudy 20000 ft
2017/08/16 20:54 KSYR 162054Z 32011KT 10SM FEW040 SCT100 BKN200 24/12 A3004 RMK AO2 SLP167 T02390122 56002
KBGM - Binghamton, New York, USA
Distance from station: SW 78mi, 126km
Updated: Wed, 16-Aug-2017 4:53pm EDT
Mostly cloudy
Mostly cloudy
 Wind from N
Wind: N 12 mph , 19 km/h
Temperature: 73°F , 23°C
Dew Point: 57°F , 14°C
Humidity: 57%
Barometer: 30.06 inHg , 1017.9 hPa
Clouds: Mostly cloudy
Visibility: 10 miles , 16 km
Cloud details: Mostly cloudy 4400 ft
Mostly cloudy 6500 ft
2017/08/16 20:53 KBGM 162053Z 36010KT 10SM BKN044 BKN065 23/14 A3006 RMK AO2 SLP171 T02280139 50000
 
KRME - Rome, New York, USA
Distance from station: WNW 43mi, 69km
Updated: Wed, 16-Aug-2017 4:53pm EDT
Clear
Clear
 Wind from NW
Wind: NW 12 mph , 19 km/h
Temperature: 77°F , 25°C
Dew Point: 50°F , 10°C
Humidity: 39%
Barometer: 30.03 inHg , 1016.9 hPa
Clouds: Clear
Visibility: 10 miles , 16 km
2017/08/16 20:53 KRME 162053Z 31010KT 10SM CLR 25/10 A3003 RMK AO2 SLP164 T02500100 53000
KJFK - New York, New York, USA
Distance from station: SSE 159mi, 256km
Updated: Wed, 16-Aug-2017 4:51pm EDT
Mostly cloudy
Mostly cloudy
 Wind from NE
Wind: NE 8 mph , 13 km/h
Temperature: 86°F , 30°C
Heat Index: 88°F , 31°C
Dew Point: 64°F , 18°C
Humidity: 49%
Barometer: 29.96 inHg , 1014.6 hPa
Clouds: Mostly cloudy
Visibility: 10 miles , 16 km
Cloud details: Partly cloudy 6500 ft
Partly cloudy 8000 ft
Mostly cloudy 26000 ft
2017/08/16 20:51 KJFK 162051Z 04007KT 10SM SCT065 SCT080 BKN260 30/18 A2996 RMK AO2 SLP143 T03000178 50001
 
KROC - Rochester, New York, USA
Distance from station: W 150mi, 242km
Updated: Wed, 16-Aug-2017 4:54pm EDT
Few Clouds
Few Clouds
 Wind from NE
Wind: NE 8 mph , 13 km/h
Temperature: 73°F , 23°C
Dew Point: 57°F , 14°C
Humidity: 57%
Barometer: 30.07 inHg , 1018.3 hPa
Clouds: Few Clouds
Visibility: 10 miles , 16 km
Cloud details: Few Clouds 3000 ft
Few Clouds 18000 ft
2017/08/16 20:54 KROC 162054Z 04007KT 10SM FEW030 FEW180 23/14 A3007 RMK AO2 SLP184 T02330144 58005
KART - Watertown, New York, USA
Distance from station: NNW 103mi, 166km
Updated: Wed, 16-Aug-2017 4:56pm EDT
Clear
Clear
 Wind from varies
Wind: varies 5 mph , 7 km/h
Temperature: 73°F , 23°C
Dew Point: 52°F , 11°C
Humidity: 47%
Barometer: 30.05 inHg , 1017.6 hPa
Clouds: Clear
Visibility: 10 miles , 16 km
2017/08/16 20:56 KART 162056Z AUTO VRB04KT 10SM CLR 23/11 A3005 RMK AO2 SLP171 T02330111 56006
 
KELM - Elmira-Corning, New York, USA
Distance from station: SSW 121mi, 195km
Updated: Wed, 16-Aug-2017 4:53pm EDT
Partly cloudy
Partly cloudy
 Wind from NNE
Wind: NNE 10 mph , 17 km/h
Temperature: 79°F , 26°C
Dew Point: 61°F , 16°C
Humidity: 54%
Barometer: 30.04 inHg , 1017.3 hPa
Clouds: Partly cloudy
Visibility: 10 miles , 16 km
Cloud details: Partly cloudy 7000 ft
2017/08/16 20:53 KELM 162053Z AUTO 02009KT 10SM SCT070 26/16 A3004 RMK AO2 SLP166 T02560161 58005
KJHW - Jamestown, New York, USA
Distance from station: SW 238mi, 383km
Updated: Wed, 16-Aug-2017 4:56pm EDT
Clear
Clear
 Wind from NNW
Wind: NNW 5 mph , 7 km/h
Temperature: 75°F , 24°C
Dew Point: 54°F , 12°C
Humidity: 47%
Barometer: 30.10 inHg , 1019.3 hPa
Clouds: Clear
Visibility: 10 miles , 16 km
2017/08/16 20:56 KJHW 162056Z AUTO 33004KT 10SM CLR 24/12 A3010 RMK AO2 SLP189 T02390117 56005
 
KMSS - Massena, New York, USA
Distance from station: N 141mi, 232km
Updated: Wed, 16-Aug-2017 4:53pm EDT
Clear
Clear
 Wind from NW
Wind: NW 10 mph , 17 km/h, Gust: 20 mph , 31 km/h
Temperature: 73°F , 23°C
Dew Point: 50°F , 10°C
Humidity: 44%
Barometer: 30.04 inHg , 1017.3 hPa
Clouds: Clear
Visibility: 10 miles , 16 km
2017/08/16 20:53 KMSS 162053Z AUTO 31009G17KT 10SM CLR 23/10 A3004 RMK AO2 SLP170 T02280100 56010
KBUF - Buffalo, New York, USA
Distance from station: W 204mi, 328km
Updated: Wed, 16-Aug-2017 4:54pm EDT
Mostly cloudy
Mostly cloudy
 Wind from N
Wind: N 8 mph , 13 km/h
Temperature: 75°F , 24°C
Dew Point: 61°F , 16°C
Humidity: 61%
Barometer: 30.05 inHg , 1017.6 hPa
Clouds: Mostly cloudy
Visibility: 10 miles , 16 km
Cloud details: Few Clouds 4000 ft
Mostly cloudy 4700 ft
Mostly cloudy 25000 ft
2017/08/16 20:54 KBUF 162054Z 01007KT 10SM FEW040 BKN047 BKN250 24/16 A3005 RMK AO2 SLP175 T02390156 56008